createdAt,value
2022-08-20T00:00:15.406Z,1.07
2022-08-20T00:05:21.730Z,0.80
2022-08-20T00:10:23.220Z,3.13
2022-08-20T00:15:32.315Z,1.27
2022-08-20T00:20:37.883Z,1.47
2022-08-20T00:25:40.654Z,3.40
2022-08-20T00:30:44.708Z,0.90
2022-08-20T00:35:49.173Z,1.20
2022-08-20T00:40:56.528Z,1.40
2022-08-20T00:46:00.827Z,1.40
2022-08-20T00:51:27.996Z,1.47
2022-08-20T00:56:33.820Z,1.70
2022-08-20T01:01:48.188Z,1.60
2022-08-20T01:06:57.465Z,3.33
2022-08-20T01:11:59.076Z,2.30
2022-08-20T01:17:08.429Z,2.10
2022-08-20T01:22:33.166Z,2.10
2022-08-20T01:27:35.122Z,2.00
2022-08-20T01:32:44.476Z,2.60
2022-08-20T01:37:46.162Z,2.30
2022-08-20T01:42:51.149Z,1.90
2022-08-20T01:48:02.136Z,1.67
2022-08-20T01:53:07.164Z,1.67
2022-08-20T01:58:08.995Z,1.70
2022-08-20T02:03:10.608Z,1.70
2022-08-20T02:08:12.248Z,1.70
2022-08-20T02:13:13.831Z,1.50
2022-08-20T02:18:15.840Z,1.33
2022-08-20T02:23:17.452Z,1.80
2022-08-20T02:28:20.610Z,1.10
2022-08-20T02:33:24.235Z,1.60
2022-08-20T02:38:26.061Z,1.70
2022-08-20T02:43:27.828Z,1.70
2022-08-20T02:48:29.639Z,1.80
2022-08-20T02:53:33.818Z,2.13
2022-08-20T02:58:35.501Z,1.60
2022-08-20T03:03:37.040Z,2.33
2022-08-20T03:08:38.897Z,1.30
2022-08-20T03:13:40.595Z,1.70
2022-08-20T03:18:45.286Z,2.37
2022-08-20T03:23:47.366Z,2.60
2022-08-20T03:28:49.346Z,1.80
2022-08-20T03:33:52.970Z,1.70
2022-08-20T03:38:57.008Z,1.67
2022-08-20T03:43:58.977Z,1.67
2022-08-20T03:49:00.915Z,1.43
2022-08-20T03:54:02.524Z,1.93
2022-08-20T03:59:04.172Z,2.10
2022-08-20T04:04:05.859Z,1.57
2022-08-20T04:09:14.945Z,2.13
2022-08-20T04:14:17.390Z,1.87
2022-08-20T04:19:21.663Z,2.00
2022-08-20T04:24:32.380Z,2.10
2022-08-20T04:29:35.715Z,1.90
2022-08-20T04:34:37.336Z,2.77
2022-08-20T04:39:38.936Z,2.67
2022-08-20T04:44:40.452Z,2.37
2022-08-20T04:49:41.992Z,2.10
2022-08-20T04:54:43.954Z,2.17
2022-08-20T04:59:45.893Z,3.40
2022-08-20T05:04:47.606Z,2.30
2022-08-20T05:09:49.105Z,1.90
2022-08-20T05:14:50.580Z,2.30
2022-08-20T05:19:52.842Z,2.30
2022-08-20T05:24:56.687Z,2.33
2022-08-20T05:30:07.131Z,3.87
2022-08-20T05:35:11.874Z,4.43
2022-08-20T05:40:14.667Z,3.70
2022-08-20T05:45:17.109Z,4.80
2022-08-20T05:50:20.639Z,3.57
2022-08-20T05:55:25.205Z,4.30
2022-08-20T06:00:27.102Z,5.63
2022-08-20T06:05:28.858Z,6.67
2022-08-20T06:10:30.406Z,6.00
2022-08-20T06:15:33.615Z,7.80
2022-08-20T06:20:38.077Z,8.70
2022-08-20T06:25:39.980Z,6.93
2022-08-20T06:30:41.493Z,7.80
2022-08-20T06:35:43.313Z,8.47
2022-08-20T06:40:44.824Z,6.63
2022-08-20T06:45:46.523Z,5.63
2022-08-20T06:50:53.441Z,7.70
2022-08-20T06:55:56.211Z,7.57
2022-08-20T07:01:01.088Z,5.57
2022-08-20T07:06:05.247Z,6.00
2022-08-20T07:11:06.818Z,6.03
2022-08-20T07:16:08.384Z,7.67
2022-08-20T07:21:12.000Z,5.83
2022-08-20T07:26:16.196Z,6.23
2022-08-20T07:31:38.686Z,6.80
2022-08-20T07:36:47.179Z,6.50
2022-08-20T07:42:02.921Z,6.87
2022-08-20T07:47:05.540Z,6.17
2022-08-20T07:52:07.147Z,6.50
2022-08-20T07:57:11.399Z,5.27
2022-08-20T08:02:13.982Z,6.37
2022-08-20T08:07:16.819Z,5.03
2022-08-20T08:12:18.651Z,4.57
2022-08-20T08:17:21.126Z,3.67
2022-08-20T08:22:22.754Z,3.42
2022-08-20T08:27:24.304Z,4.70
2022-08-20T08:32:28.429Z,4.32
2022-08-20T08:37:30.964Z,3.40
2022-08-20T08:42:43.259Z,3.38
2022-08-20T08:47:45.362Z,3.35
2022-08-20T08:52:48.044Z,3.65
2022-08-20T08:57:50.998Z,3.78
2022-08-20T09:02:58.067Z,3.60
2022-08-20T09:08:02.910Z,3.58
2022-08-20T09:13:07.773Z,3.65
2022-08-20T09:18:09.311Z,4.05
2022-08-20T09:23:10.966Z,3.92
2022-08-20T09:28:12.679Z,3.85
2022-08-20T09:33:15.819Z,5.40
2022-08-20T09:38:17.366Z,5.03
2022-08-20T09:43:18.858Z,6.88
2022-08-20T09:48:20.521Z,8.52
2022-08-20T09:53:31.407Z,7.35
2022-08-20T09:58:47.459Z,6.60
2022-08-20T10:03:49.961Z,5.45
2022-08-20T10:08:51.450Z,5.25
2022-08-20T10:13:52.952Z,5.00
2022-08-20T10:18:54.685Z,4.80
2022-08-20T10:23:56.395Z,4.50
2022-08-20T10:28:57.949Z,3.63
2022-08-20T10:33:59.471Z,3.40
2022-08-20T10:39:02.100Z,3.13
2022-08-20T10:44:04.385Z,3.63
2022-08-20T10:49:05.900Z,6.30
2022-08-20T10:54:12.309Z,4.90
2022-08-20T10:59:14.894Z,3.58
2022-08-20T11:04:16.460Z,4.05
2022-08-20T11:09:17.949Z,5.10
2022-08-20T11:14:19.510Z,3.58
2022-08-20T11:19:21.095Z,3.08
2022-08-20T11:24:22.715Z,3.15
2022-08-20T11:29:24.915Z,3.97
2022-08-20T11:34:26.529Z,2.95
2022-08-20T11:39:28.164Z,4.72
2022-08-20T11:44:30.298Z,5.68
2022-08-20T11:49:36.469Z,3.13
2022-08-20T11:54:40.465Z,3.22
2022-08-20T11:59:42.361Z,3.35
2022-08-20T12:04:44.398Z,3.35
2022-08-20T12:09:51.040Z,2.50
2022-08-20T12:14:54.356Z,2.40
2022-08-20T12:19:59.934Z,2.65
2022-08-20T12:25:03.050Z,3.15
2022-08-20T12:30:09.006Z,2.88
2022-08-20T12:35:14.551Z,2.50
2022-08-20T12:40:31.962Z,3.28
2022-08-20T12:45:38.353Z,3.63
2022-08-20T12:50:41.909Z,5.40
2022-08-20T12:55:43.506Z,5.03
2022-08-20T13:00:50.497Z,4.13
2022-08-20T13:05:52.641Z,3.00
2022-08-20T13:10:54.161Z,3.45
2022-08-20T13:15:55.728Z,3.47
2022-08-20T13:20:57.197Z,3.80
2022-08-20T13:25:58.690Z,5.43
2022-08-20T13:31:01.964Z,4.60
2022-08-20T13:36:04.010Z,4.20
2022-08-20T13:41:05.690Z,5.25
2022-08-20T13:46:07.330Z,3.92
2022-08-20T13:51:08.872Z,4.68
2022-08-20T13:56:10.630Z,3.47
2022-08-20T14:01:12.171Z,4.18
2022-08-20T14:06:13.756Z,2.60
2022-08-20T14:11:17.714Z,3.33
2022-08-20T14:16:27.248Z,3.47
2022-08-20T14:21:29.580Z,2.28
2022-08-20T14:26:31.136Z,5.60
2022-08-20T14:31:32.779Z,2.67
2022-08-20T14:36:34.298Z,2.22
2022-08-20T14:41:35.835Z,3.67
2022-08-20T14:46:37.363Z,3.55
2022-08-20T14:51:39.088Z,4.03
2022-08-20T14:56:41.092Z,6.43
2022-08-20T15:01:42.797Z,3.20
2022-08-20T15:06:44.387Z,3.35
2022-08-20T15:11:47.395Z,5.38
2022-08-20T15:16:49.141Z,3.90
2022-08-20T15:21:50.775Z,4.75
2022-08-20T15:26:52.407Z,4.10
2022-08-20T15:31:54.120Z,5.05
2022-08-20T15:36:57.118Z,3.08
2022-08-20T15:42:04.062Z,4.95
2022-08-20T15:47:23.510Z,6.13
2022-08-20T15:52:26.556Z,2.10
2022-08-20T15:57:42.949Z,2.90
2022-08-20T16:03:20.604Z,3.30
2022-08-20T16:08:45.332Z,2.25
2022-08-20T16:13:59.815Z,1.35
2022-08-20T16:19:02.243Z,2.10
2022-08-20T16:24:06.972Z,1.55
2022-08-20T16:29:19.820Z,2.97
2022-08-20T16:34:33.277Z,2.78
2022-08-20T16:39:55.434Z,2.63
2022-08-20T16:44:57.554Z,1.52
2022-08-20T16:50:06.529Z,1.48
2022-08-20T16:55:08.420Z,1.83
2022-08-20T17:00:13.623Z,2.22
2022-08-20T17:05:15.323Z,1.30
2022-08-20T17:10:28.155Z,1.73
2022-08-20T17:15:32.819Z,3.00
2022-08-20T17:20:44.699Z,1.85
2022-08-20T17:25:56.256Z,3.35
2022-08-20T17:30:57.809Z,3.33
2022-08-20T17:36:02.210Z,2.22
2022-08-20T17:41:12.836Z,4.68
2022-08-20T17:46:18.296Z,4.13
2022-08-20T17:51:23.985Z,2.85
2022-08-20T17:56:34.771Z,3.03
2022-08-20T18:01:36.453Z,2.55
2022-08-20T18:06:53.016Z,3.35
2022-08-20T18:12:00.713Z,3.08
2022-08-20T18:17:32.401Z,4.72
2022-08-20T18:22:36.454Z,2.10
2022-08-20T18:27:45.572Z,3.38
2022-08-20T18:32:48.901Z,3.80
2022-08-20T18:37:50.578Z,2.60
2022-08-20T18:42:52.049Z,1.80
2022-08-20T18:47:53.561Z,2.65
2022-08-20T18:53:33.970Z,2.70
2022-08-20T18:58:49.255Z,2.63
2022-08-20T19:03:55.361Z,3.80
2022-08-20T19:09:09.237Z,18.63
2022-08-20T19:14:27.755Z,11.70
2022-08-20T19:19:32.967Z,4.27
2022-08-20T19:24:35.381Z,4.67
2022-08-20T19:29:41.054Z,2.53
2022-08-20T19:34:44.454Z,3.13
2022-08-20T19:39:46.248Z,2.73
2022-08-20T19:44:55.727Z,3.87
2022-08-20T19:50:23.257Z,4.73
2022-08-20T19:55:30.170Z,3.30
2022-08-20T20:00:44.249Z,3.93
2022-08-20T20:06:16.102Z,3.33
2022-08-20T20:11:21.922Z,5.10
2022-08-20T20:16:23.815Z,3.10
2022-08-20T20:21:35.985Z,3.93
2022-08-20T20:26:40.931Z,5.90
2022-08-20T20:31:51.693Z,2.43
2022-08-20T20:37:02.681Z,3.70
2022-08-20T20:42:07.466Z,4.90
2022-08-20T20:47:23.930Z,3.63
2022-08-20T20:52:30.717Z,2.60
2022-08-20T20:57:36.365Z,2.70
2022-08-20T21:02:41.120Z,9.47
2022-08-20T21:07:50.216Z,3.23
2022-08-20T21:12:57.234Z,3.90
2022-08-20T21:18:01.124Z,3.23
2022-08-20T21:23:03.099Z,4.30
2022-08-20T21:28:05.031Z,3.07
2022-08-20T21:33:06.533Z,3.40
2022-08-20T21:38:08.581Z,3.00
2022-08-20T21:43:10.994Z,3.87
2022-08-20T21:48:13.127Z,4.57
2022-08-20T21:53:14.749Z,6.27
2022-08-20T21:58:16.586Z,5.40
2022-08-20T22:03:20.074Z,4.20
2022-08-20T22:08:26.167Z,4.17
2022-08-20T22:13:32.833Z,5.03
2022-08-20T22:18:35.322Z,3.70
2022-08-20T22:23:39.971Z,7.93
2022-08-20T22:28:42.053Z,6.13
2022-08-20T22:33:43.632Z,4.60
2022-08-20T22:38:45.757Z,5.13
2022-08-20T22:43:56.721Z,5.33
2022-08-20T22:48:58.968Z,4.57
2022-08-20T22:54:02.008Z,4.83
2022-08-20T22:59:04.282Z,4.53
2022-08-20T23:04:22.247Z,4.30
2022-08-20T23:09:24.542Z,4.07
2022-08-20T23:14:27.125Z,4.33
2022-08-20T23:19:29.066Z,4.63
2022-08-20T23:24:30.613Z,4.03
2022-08-20T23:29:33.095Z,6.00
2022-08-20T23:34:34.755Z,4.20
2022-08-20T23:39:36.521Z,4.17
2022-08-20T23:44:38.230Z,3.40
2022-08-20T23:49:39.862Z,5.07
2022-08-20T23:54:41.422Z,5.10
2022-08-20T23:59:43.085Z,5.27
